createdAt,value
2022-08-03T00:01:01.422Z,9.6
2022-08-03T00:06:04.338Z,7.4
2022-08-03T00:11:01.330Z,7.2
2022-08-03T00:16:01.330Z,5.5
2022-08-03T00:21:01.300Z,4.9
2022-08-03T00:26:01.278Z,5.5
2022-08-03T00:31:01.221Z,4.7
2022-08-03T00:36:01.177Z,5.8
2022-08-03T00:41:01.066Z,4.5
2022-08-03T00:46:01.050Z,5.5
2022-08-03T00:51:00.961Z,4.7
2022-08-03T00:56:00.960Z,5.9
2022-08-03T01:01:00.951Z,6.4
2022-08-03T01:06:00.826Z,4.5
2022-08-03T01:11:00.712Z,4.4
2022-08-03T01:16:00.714Z,7.1
2022-08-03T01:21:00.576Z,4.4
2022-08-03T01:26:00.535Z,4.4
2022-08-03T01:31:00.419Z,6.2
2022-08-03T01:36:00.358Z,4.5
2022-08-03T01:41:00.287Z,5.5
2022-08-03T01:46:00.238Z,6.5
2022-08-03T01:51:00.135Z,3.6
2022-08-03T01:56:00.060Z,5.2
2022-08-03T02:00:59.948Z,5.9
2022-08-03T02:07:00.790Z,5.1
2022-08-03T02:10:59.787Z,5.7
2022-08-03T02:15:59.695Z,4.8
2022-08-03T02:20:59.675Z,6.2
2022-08-03T02:25:59.994Z,4.4
2022-08-03T02:30:59.693Z,4.9
2022-08-03T02:35:59.473Z,6.6
2022-08-03T02:40:59.386Z,5.1
2022-08-03T02:45:59.292Z,5.8
2022-08-03T02:50:59.663Z,4.6
2022-08-03T02:55:59.181Z,5
2022-08-03T03:00:59.120Z,6.8
2022-08-03T03:05:59.806Z,5.8
2022-08-03T03:10:58.959Z,5.9
2022-08-03T03:15:58.846Z,6.6
2022-08-03T03:20:58.764Z,6.7
2022-08-03T03:25:58.707Z,6.7
2022-08-03T03:30:58.596Z,9.2
2022-08-03T03:35:58.503Z,7.2
2022-08-03T03:40:58.387Z,7.4
2022-08-03T03:45:58.319Z,6.7
2022-08-03T03:50:58.198Z,7.3
2022-08-03T03:56:02.163Z,7.1
2022-08-03T04:00:58.066Z,9.7
2022-08-03T04:05:57.932Z,6.4
2022-08-03T04:10:57.845Z,7.8
2022-08-03T04:15:57.789Z,6.9
2022-08-03T04:20:59.144Z,7.4
2022-08-03T04:25:57.572Z,6.9
2022-08-03T04:30:57.482Z,8.3
2022-08-03T04:36:01.307Z,7.5
2022-08-03T04:40:57.347Z,7
2022-08-03T04:45:57.250Z,6.9
2022-08-03T04:50:57.170Z,8.7
2022-08-03T04:55:57.060Z,11
2022-08-03T05:00:57.009Z,7.8
2022-08-03T05:06:01.838Z,7.4
2022-08-03T05:10:56.937Z,7.8
2022-08-03T05:15:56.770Z,7.1
2022-08-03T05:20:56.699Z,8
2022-08-03T05:25:56.644Z,9.4
2022-08-03T05:30:56.582Z,8.7
2022-08-03T05:36:03.454Z,6.9
2022-08-03T05:40:57.217Z,6.6
2022-08-03T05:46:12.374Z,6.2
2022-08-03T05:50:57.594Z,6.7
2022-08-03T05:55:59.283Z,7.7
2022-08-03T06:00:56.118Z,7.1
2022-08-03T06:06:00.309Z,8
2022-08-03T06:10:55.964Z,7.1
2022-08-03T06:15:55.952Z,6.4
2022-08-03T06:20:55.946Z,8.2
2022-08-03T06:25:55.924Z,7.5
2022-08-03T06:30:55.881Z,7.1
2022-08-03T06:35:55.867Z,6.9
2022-08-03T06:40:55.898Z,7.4
2022-08-03T06:45:55.835Z,8.5
2022-08-03T06:50:55.908Z,6.6
2022-08-03T06:55:55.844Z,6.7
2022-08-03T07:00:55.849Z,6.6
2022-08-03T07:05:55.867Z,8.5
2022-08-03T07:10:55.838Z,7.6
2022-08-03T07:15:56.589Z,8.3
2022-08-03T07:20:56.973Z,6.4
2022-08-03T07:25:55.882Z,7.5
2022-08-03T07:30:55.919Z,5.4
2022-08-03T07:35:55.947Z,5.3
2022-08-03T07:40:55.989Z,6.7
2022-08-03T07:45:56.023Z,5.3
2022-08-03T07:50:56.026Z,5.5
2022-08-03T07:55:56.033Z,5.2
2022-08-03T08:00:56.105Z,4.9
2022-08-03T08:05:56.062Z,6.7
2022-08-03T08:10:58.424Z,5.7
2022-08-03T08:15:56.132Z,5.8
2022-08-03T08:20:56.165Z,5.7
2022-08-03T08:25:56.255Z,5.5
2022-08-03T08:30:56.301Z,5.1
2022-08-03T08:35:56.361Z,4.8
2022-08-03T08:40:56.382Z,4.9
2022-08-03T08:45:56.421Z,4.9
2022-08-03T08:50:56.480Z,4.9
2022-08-03T08:55:58.852Z,7.1
2022-08-03T09:00:56.625Z,5.3
2022-08-03T09:05:56.688Z,3.9
2022-08-03T09:10:56.677Z,4.5
2022-08-03T09:16:01.166Z,7.1
2022-08-03T09:20:56.738Z,5.1
2022-08-03T09:25:56.795Z,6.5
2022-08-03T09:30:56.825Z,5.5
2022-08-03T09:35:57.758Z,5.6
2022-08-03T09:40:59.878Z,5.2
2022-08-03T09:45:57.015Z,6.2
2022-08-03T09:51:12.553Z,4.7
2022-08-03T09:56:35.567Z,6.1
2022-08-03T10:00:57.289Z,4.5
2022-08-03T10:05:59.867Z,3.7
2022-08-03T10:10:57.373Z,5.5
2022-08-03T10:16:23.399Z,4.1
2022-08-03T10:20:57.506Z,12.6
2022-08-03T10:25:57.619Z,5.6
2022-08-03T10:30:57.708Z,4.7
2022-08-03T10:35:57.816Z,4.2
2022-08-03T10:40:59.192Z,4.5
2022-08-03T10:45:58.010Z,3.6
2022-08-03T10:50:58.135Z,3.9
2022-08-03T10:55:58.253Z,4.2
2022-08-03T11:00:58.431Z,3.9
2022-08-03T11:05:58.520Z,7.6
2022-08-03T11:10:58.679Z,4.4
2022-08-03T11:15:59.700Z,5.5
2022-08-03T11:20:59.016Z,9.5
2022-08-03T11:25:59.188Z,3.9
2022-08-03T11:30:59.388Z,3.6
2022-08-03T11:35:59.590Z,3.8
2022-08-03T11:40:59.754Z,4.1
2022-08-03T11:45:59.945Z,4.1
2022-08-03T11:51:00.093Z,4.2
2022-08-03T11:56:00.231Z,4.8
2022-08-03T12:01:00.430Z,5.9
2022-08-03T12:06:00.587Z,3.7
2022-08-03T12:11:00.785Z,7.4
2022-08-03T12:16:00.972Z,11.2
2022-08-03T12:21:01.150Z,3.7
2022-08-03T12:26:01.308Z,3.5
2022-08-03T12:31:01.491Z,3.8
2022-08-03T12:36:01.625Z,3.9
2022-08-03T12:41:01.799Z,3.7
2022-08-03T12:46:01.982Z,3.2
2022-08-03T12:51:02.165Z,3.3
2022-08-03T12:56:05.834Z,4.4
2022-08-03T13:01:05.236Z,4.4
2022-08-03T13:06:02.739Z,3.7
2022-08-03T13:11:02.891Z,3.3
2022-08-03T13:16:04.560Z,4.7
2022-08-03T13:21:03.228Z,3.3
2022-08-03T13:26:03.432Z,4.5
2022-08-03T13:31:03.611Z,3.7
2022-08-03T13:36:03.817Z,4
2022-08-03T13:41:04.823Z,4.1
2022-08-03T13:46:04.146Z,3
2022-08-03T13:51:11.757Z,4.3
2022-08-03T13:56:04.533Z,2.6
2022-08-03T14:01:04.703Z,3.1
2022-08-03T14:06:05.036Z,4.4
2022-08-03T14:11:05.090Z,3.5
2022-08-03T14:16:05.322Z,3
2022-08-03T14:21:06.698Z,5.3
2022-08-03T14:26:05.742Z,4.3
2022-08-03T14:31:08.291Z,2.3
2022-08-03T14:36:06.182Z,2.6
2022-08-03T14:41:06.432Z,2.5
2022-08-03T14:46:06.598Z,3.2
2022-08-03T14:51:06.782Z,3.7
2022-08-03T14:56:10.684Z,3
2022-08-03T15:02:01.757Z,2.6
2022-08-03T15:06:07.428Z,2.1
2022-08-03T15:11:07.639Z,2.3
2022-08-03T15:16:07.849Z,3.6
2022-08-03T15:21:09.231Z,2.1
2022-08-03T15:26:32.633Z,3.6
2022-08-03T15:31:08.494Z,2.9
2022-08-03T15:36:08.768Z,3.5
2022-08-03T15:41:13.676Z,2.1
2022-08-03T15:46:29.517Z,2.6
2022-08-03T15:51:09.489Z,2.8
2022-08-03T15:56:12.288Z,2.7
2022-08-03T16:01:10.080Z,3.1
2022-08-03T16:06:10.221Z,2.6
2022-08-03T16:11:10.470Z,2.7
2022-08-03T16:16:10.671Z,2.4
2022-08-03T16:21:10.935Z,3
2022-08-03T16:26:11.154Z,3.2
2022-08-03T16:31:11.395Z,2.2
2022-08-03T16:36:11.636Z,4
2022-08-03T16:41:11.846Z,2.7
2022-08-03T16:46:12.089Z,3
2022-08-03T16:51:12.322Z,5.1
2022-08-03T16:56:12.570Z,6.7
2022-08-03T17:01:22.193Z,4.6
2022-08-03T17:06:13.006Z,4.7
2022-08-03T17:11:13.242Z,4
2022-08-03T17:16:15.421Z,4.4
2022-08-03T17:21:13.688Z,5.8
2022-08-03T17:26:21.255Z,6.1
2022-08-03T17:31:22.998Z,10.4
2022-08-03T17:36:14.354Z,4.5
2022-08-03T17:41:14.573Z,4.4
2022-08-03T17:46:14.815Z,5.9
2022-08-03T17:51:15.425Z,3.7
2022-08-03T17:56:44.313Z,5.9
2022-08-03T18:02:00.640Z,6.8
2022-08-03T18:06:15.749Z,4
2022-08-03T18:11:15.942Z,3.7
2022-08-03T18:16:16.170Z,5.2
2022-08-03T18:21:16.881Z,15.2
2022-08-03T18:26:16.601Z,6
2022-08-03T18:32:00.289Z,10.7
2022-08-03T18:36:17.388Z,29.9
2022-08-03T18:38:14.285Z,29.9
2022-08-03T18:41:21.982Z,5
2022-08-03T18:46:17.301Z,19.7
2022-08-03T18:51:24.250Z,10
2022-08-03T18:56:17.619Z,6.9
2022-08-03T19:02:00.520Z,8.8
2022-08-03T19:06:20.054Z,6.2
2022-08-03T19:11:18.119Z,7.6
2022-08-03T19:16:18.316Z,5.2
2022-08-03T19:21:18.477Z,8.5
2022-08-03T19:26:30.627Z,8.6
2022-08-03T19:31:18.815Z,5.2
2022-08-03T19:36:18.964Z,5.6
2022-08-03T19:41:19.090Z,7.9
2022-08-03T19:46:19.258Z,5.3
2022-08-03T19:51:19.372Z,10.9
2022-08-03T19:56:19.559Z,9.5
2022-08-03T20:01:21.561Z,12.8
2022-08-03T20:06:19.862Z,14.3
2022-08-03T20:11:19.992Z,13.9
2022-08-03T20:16:21.313Z,11.8
2022-08-03T20:21:20.224Z,13.9
2022-08-03T20:26:20.406Z,10.6
2022-08-03T20:31:25.158Z,11.5
2022-08-03T20:36:20.601Z,14.3
2022-08-03T20:41:20.671Z,10.7
2022-08-03T20:46:35.349Z,13.1
2022-08-03T20:51:48.906Z,11.7
2022-08-03T20:56:20.934Z,11.5
2022-08-03T21:01:27.792Z,15
2022-08-03T21:06:27.633Z,11
2022-08-03T21:11:21.336Z,8.3
2022-08-03T21:16:21.267Z,8.2
2022-08-03T21:21:21.302Z,8
2022-08-03T21:26:21.318Z,6.8
2022-08-03T21:31:24.491Z,7.7
2022-08-03T21:36:21.381Z,5.6
2022-08-03T21:41:21.420Z,6.9
2022-08-03T21:46:21.481Z,8.4
2022-08-03T21:51:21.509Z,7
2022-08-03T21:56:21.578Z,9.7
2022-08-03T22:01:21.664Z,10
2022-08-03T22:06:21.704Z,12.1
2022-08-03T22:11:21.737Z,10.5
2022-08-03T22:16:21.758Z,9.7
2022-08-03T22:21:28.175Z,9.6
2022-08-03T22:26:32.496Z,7.3
2022-08-03T22:31:30.709Z,6.4
2022-08-03T22:36:21.944Z,6.1
2022-08-03T22:41:21.909Z,6.6
2022-08-03T22:46:21.957Z,6.2
2022-08-03T22:51:22.018Z,8.5
2022-08-03T22:56:22.100Z,11.5
2022-08-03T23:01:22.123Z,9.2
2022-08-03T23:06:22.159Z,11.8
2022-08-03T23:11:22.170Z,7.5
2022-08-03T23:16:29.228Z,10.7
2022-08-03T23:22:00.243Z,7.7
2022-08-03T23:26:22.185Z,9.4
2022-08-03T23:31:22.190Z,10.5
2022-08-03T23:36:31.158Z,7.7
2022-08-03T23:41:22.182Z,12.1
2022-08-03T23:46:22.205Z,7.3
2022-08-03T23:51:22.238Z,10.7
2022-08-03T23:56:22.229Z,7.6
